Time;durP1;ratioP1;P1;durP2;ratioP2;P2;SDS_P1;SDS_P2;PMS_P1;PMS_P2;Temp;Humidity;BMP_temperature;BMP_pressure;BME280_temperature;BME280_humidity;BME280_pressure;Samples;Min_cycle;Max_cycle;Signal;HPM_P1;HPM_P2
2021/04/27 00:01:57;;;;;;;1999.90;999.90;;;7.20;41.40;;;;;;5015498;28;20052;-73
2021/04/27 00:04:24;;;;;;;1999.90;999.90;;;7.20;41.30;;;;;;5020666;28;20050;-73
2021/04/27 00:06:50;;;;;;;1999.90;999.90;;;7.10;41.10;;;;;;5017264;28;20077;-73
2021/04/27 00:09:16;;;;;;;1999.90;999.90;;;7.10;41.40;;;;;;5028331;28;20227;-73
2021/04/27 00:11:43;;;;;;;1999.90;999.90;;;7.10;41.30;;;;;;5011983;28;20133;-73
2021/04/27 00:14:09;;;;;;;1999.90;999.90;;;7.00;41.40;;;;;;4999718;28;20050;-73
2021/04/27 00:16:38;;;;;;;1999.90;999.90;;;7.00;41.20;;;;;;5015938;28;20046;-73
2021/04/27 00:19:05;;;;;;;1999.90;999.90;;;7.00;41.40;;;;;;5016755;28;20041;-73
2021/04/27 00:21:31;;;;;;;1999.90;999.90;;;6.90;41.20;;;;;;5035357;28;20072;-73
2021/04/27 00:23:57;;;;;;;1999.90;999.90;;;6.90;41.30;;;;;;5031883;28;20080;-73
2021/04/27 00:26:28;;;;;;;1999.90;999.90;;;6.80;41.20;;;;;;5049165;28;20465;-73
2021/04/27 00:28:54;;;;;;;1999.90;999.90;;;6.80;41.50;;;;;;5020630;28;20055;-73
2021/04/27 00:31:21;;;;;;;1999.90;999.90;;;6.80;41.60;;;;;;5060409;28;20122;-73
2021/04/27 00:33:47;;;;;;;1999.90;999.90;;;6.80;41.20;;;;;;5048663;28;20472;-73
2021/04/27 00:36:13;;;;;;;1999.90;999.90;;;6.70;41.20;;;;;;5045801;28;20341;-73
2021/04/27 00:38:40;;;;;;;1999.90;999.90;;;6.70;41.50;;;;;;5045699;28;20049;-73
2021/04/27 00:41:08;;;;;;;1999.90;999.90;;;6.70;41.20;;;;;;5026520;28;20042;-73
2021/04/27 00:43:35;;;;;;;1999.90;999.90;;;6.70;41.20;;;;;;5044283;28;20376;-73
2021/04/27 00:46:01;;;;;;;1999.90;999.90;;;6.70;41.20;;;;;;5050990;28;20051;-73
2021/04/27 00:48:27;;;;;;;1999.90;999.90;;;6.70;41.10;;;;;;5023917;28;20044;-73
2021/04/27 00:50:54;;;;;;;1999.90;999.90;;;6.70;41.30;;;;;;5033950;28;20044;-73
2021/04/27 00:53:20;;;;;;;1999.90;999.90;;;6.60;41.10;;;;;;5056129;28;20037;-73
2021/04/27 00:55:46;;;;;;;1999.90;999.90;;;6.60;41.10;;;;;;5039367;28;20080;-73
2021/04/27 00:58:13;;;;;;;1999.90;999.90;;;6.50;41.10;;;;;;5054812;28;20049;-73
2021/04/27 01:00:42;;;;;;;1999.90;999.90;;;6.50;41.20;;;;;;5047397;28;20084;-73
2021/04/27 01:03:09;;;;;;;1999.90;999.90;;;6.40;41.20;;;;;;5026821;28;20041;-73
2021/04/27 01:05:39;;;;;;;1999.90;999.90;;;6.40;41.20;;;;;;5043274;28;20052;-73
2021/04/27 01:08:11;;;;;;;1999.90;999.90;;;6.30;41.10;;;;;;5052527;28;20051;-73
2021/04/27 01:10:46;;;;;;;1999.90;999.90;;;6.30;41.40;;;;;;5024373;28;20049;-73
2021/04/27 01:13:24;;;;;;;1999.90;999.90;;;6.30;41.50;;;;;;5053045;28;20423;-73
2021/04/27 01:15:51;;;;;;;1999.90;999.90;;;6.20;41.30;;;;;;5046780;28;20045;-74
2021/04/27 01:18:20;;;;;;;1999.90;999.90;;;6.20;41.50;;;;;;5042854;28;20052;-73
2021/04/27 01:20:48;;;;;;;1999.90;999.90;;;6.10;41.70;;;;;;5031796;28;20057;-73
2021/04/27 01:23:31;;;;;;;1999.90;999.90;;;6.10;41.90;;;;;;5045358;28;20040;-73
2021/04/27 01:26:19;;;;;;;1999.90;999.90;;;6.00;41.80;;;;;;5046924;28;20455;-73
2021/04/27 01:28:47;;;;;;;1999.90;999.90;;;6.00;41.60;;;;;;5048063;28;20041;-73
2021/04/27 01:31:16;;;;;;;1999.90;999.90;;;6.00;41.70;;;;;;5041602;28;20053;-73
2021/04/27 01:33:43;;;;;;;1999.90;999.90;;;5.90;41.80;;;;;;5056265;28;20049;-73
2021/04/27 01:36:10;;;;;;;1999.90;999.90;;;5.90;41.60;;;;;;5055616;28;20044;-73
2021/04/27 01:38:37;;;;;;;1999.90;999.90;;;5.90;41.70;;;;;;5050797;28;20167;-73
2021/04/27 01:41:06;;;;;;;1999.90;999.90;;;5.90;41.80;;;;;;5057455;28;20045;-73
2021/04/27 01:43:32;;;;;;;1999.90;999.90;;;5.90;41.80;;;;;;5053003;28;20502;-73
2021/04/27 01:46:02;;;;;;;1999.90;999.90;;;5.90;41.70;;;;;;5022969;28;20042;-73
2021/04/27 01:48:30;;;;;;;1999.90;999.90;;;5.90;41.80;;;;;;5037821;28;20048;-73
2021/04/27 01:50:56;;;;;;;1999.90;999.90;;;5.80;41.80;;;;;;5043596;28;20562;-73
2021/04/27 01:53:23;;;;;;;1999.90;999.90;;;5.80;41.80;;;;;;5049837;28;20120;-73
2021/04/27 01:55:49;;;;;;;1999.90;999.90;;;5.70;41.70;;;;;;5045675;28;20048;-73
2021/04/27 01:58:16;;;;;;;1999.90;999.90;;;5.70;41.70;;;;;;5036706;28;20045;-73
2021/04/27 02:00:44;;;;;;;1999.90;999.90;;;5.70;41.70;;;;;;5032108;28;20389;-73
2021/04/27 02:03:10;;;;;;;1999.90;999.90;;;5.70;41.60;;;;;;5021650;28;20131;-73
2021/04/27 02:05:37;;;;;;;1999.90;999.90;;;5.70;41.70;;;;;;5041916;28;20239;-73
2021/04/27 02:08:04;;;;;;;1999.90;999.90;;;5.70;41.80;;;;;;5033793;28;20041;-74
2021/04/27 02:10:31;;;;;;;1999.90;999.90;;;5.60;41.80;;;;;;5047445;28;20061;-73
2021/04/27 02:13:06;;;;;;;1999.90;999.90;;;5.60;41.70;;;;;;5029716;28;20049;-73
2021/04/27 02:15:34;;;;;;;1999.90;999.90;;;5.60;41.90;;;;;;5051447;28;20067;-73
2021/04/27 02:18:12;;;;;;;1999.90;999.90;;;5.50;42.20;;;;;;5030021;28;20069;-73
2021/04/27 02:20:40;;;;;;;1999.90;999.90;;;5.50;41.80;;;;;;5061361;28;20060;-73
2021/04/27 02:23:06;;;;;;;1999.90;999.90;;;5.50;41.90;;;;;;5055088;28;20461;-73
2021/04/27 02:25:33;;;;;;;1999.90;999.90;;;5.50;41.80;;;;;;5033453;28;20045;-73
2021/04/27 02:28:00;;;;;;;1999.90;999.90;;;5.50;41.90;;;;;;5030463;28;20084;-73
2021/04/27 02:30:27;;;;;;;1999.90;999.90;;;5.40;41.80;;;;;;5041377;28;20072;-74
2021/04/27 02:32:54;;;;;;;1999.90;999.90;;;5.40;41.90;;;;;;5050343;28;20045;-73
2021/04/27 02:35:21;;;;;;;1999.90;999.90;;;5.40;41.80;;;;;;5041692;28;20073;-73
2021/04/27 02:37:50;;;;;;;1999.90;999.90;;;5.40;41.60;;;;;;5049334;28;20045;-73
2021/04/27 02:40:24;;;;;;;1999.90;999.90;;;5.40;41.70;;;;;;5050056;28;20119;-73
2021/04/27 02:42:53;;;;;;;1999.90;999.90;;;5.30;41.60;;;;;;5051291;28;20040;-73
2021/04/27 02:45:20;;;;;;;1999.90;999.90;;;5.30;41.70;;;;;;5031904;28;20116;-73
2021/04/27 02:47:47;;;;;;;1999.90;999.90;;;5.20;41.60;;;;;;5060638;28;20051;-73
2021/04/27 02:50:14;;;;;;;1999.90;999.90;;;5.20;41.80;;;;;;5049943;28;20456;-73
2021/04/27 02:52:42;;;;;;;1999.90;999.90;;;5.10;41.90;;;;;;5058500;28;20121;-73
2021/04/27 02:55:12;;;;;;;1999.90;999.90;;;5.00;42.10;;;;;;5025429;28;20060;-73
2021/04/27 02:57:39;;;;;;;1999.90;999.90;;;5.00;42.20;;;;;;5028000;28;20568;-74
2021/04/27 03:00:06;;;;;;;1999.90;999.90;;;5.00;41.90;;;;;;5047510;28;20080;-73
2021/04/27 03:02:32;;;;;;;1999.90;999.90;;;4.90;41.90;;;;;;5044868;28;20045;-73
2021/04/27 03:04:59;;;;;;;1999.90;999.90;;;4.90;42.10;;;;;;5027525;28;20149;-73
2021/04/27 03:07:25;;;;;;;1999.90;999.90;;;4.80;42.10;;;;;;5042315;28;20055;-73
2021/04/27 03:09:51;;;;;;;1999.90;999.90;;;4.80;42.00;;;;;;5043557;28;20041;-72
2021/04/27 03:12:17;;;;;;;1999.90;999.90;;;4.80;42.10;;;;;;5032494;28;20045;-73
2021/04/27 03:14:43;;;;;;;1999.90;999.90;;;4.70;42.30;;;;;;5038707;28;20052;-74
2021/04/27 03:17:09;;;;;;;1999.90;999.90;;;4.70;42.60;;;;;;5027310;28;20133;-73
2021/04/27 03:19:36;;;;;;;1999.90;999.90;;;4.60;42.30;;;;;;5032237;28;20136;-73
2021/04/27 03:22:02;;;;;;;1999.90;999.90;;;4.60;42.40;;;;;;5050286;28;20527;-73
2021/04/27 03:24:28;;;;;;;1999.90;999.90;;;4.60;42.20;;;;;;5050764;28;20405;-73
2021/04/27 03:26:54;;;;;;;1999.90;999.90;;;4.60;42.30;;;;;;5036808;28;20148;-73
2021/04/27 03:29:20;;;;;;;1999.90;999.90;;;4.60;42.40;;;;;;5022485;28;20063;-73
2021/04/27 03:31:47;;;;;;;1999.90;999.90;;;4.60;42.20;;;;;;5045293;28;20140;-73
2021/04/27 03:34:13;;;;;;;1999.90;999.90;;;4.60;42.20;;;;;;5046744;28;20084;-73
2021/04/27 03:36:39;;;;;;;1999.90;999.90;;;4.60;42.30;;;;;;5020436;28;20135;-73
2021/04/27 03:39:06;;;;;;;1999.90;999.90;;;4.60;42.40;;;;;;5031331;28;20052;-73
2021/04/27 03:41:32;;;;;;;1999.90;999.90;;;4.60;42.20;;;;;;5020877;28;20047;-73
2021/04/27 03:43:58;;;;;;;1999.90;999.90;;;4.50;42.10;;;;;;5049462;28;20048;-73
2021/04/27 03:46:24;;;;;;;1999.90;999.90;;;4.50;42.70;;;;;;5039835;28;20048;-72
2021/04/27 03:48:50;;;;;;;1999.90;999.90;;;4.50;42.10;;;;;;5035744;28;20120;-73
2021/04/27 03:51:19;;;;;;;1999.90;999.90;;;4.50;42.30;;;;;;5040870;28;20330;-73
2021/04/27 03:53:45;;;;;;;1999.90;999.90;;;4.40;42.50;;;;;;5022119;28;20045;-72
2021/04/27 03:56:11;;;;;;;1999.90;999.90;;;4.40;42.30;;;;;;5029533;28;20048;-73
2021/04/27 03:58:39;;;;;;;1999.90;999.90;;;4.40;42.70;;;;;;5033031;28;20045;-73
2021/04/27 04:01:09;;;;;;;1999.90;999.90;;;4.40;42.60;;;;;;5058712;28;20045;-73
2021/04/27 04:03:40;;;;;;;1999.90;999.90;;;4.40;42.60;;;;;;5049132;28;20124;-73
2021/04/27 04:06:06;;;;;;;1999.90;999.90;;;4.30;42.20;;;;;;5027961;28;20464;-73
2021/04/27 04:08:34;;;;;;;1999.90;999.90;;;4.30;42.50;;;;;;5041599;28;20539;-73
2021/04/27 04:11:00;;;;;;;1999.90;999.90;;;4.30;42.30;;;;;;5048455;28;20107;-73
2021/04/27 04:13:27;;;;;;;1999.90;999.90;;;4.30;42.30;;;;;;5027851;28;20055;-73
2021/04/27 04:15:54;;;;;;;1999.90;999.90;;;4.20;42.30;;;;;;5047643;28;20088;-73
2021/04/27 04:18:21;;;;;;;1999.90;999.90;;;4.20;42.50;;;;;;5045851;28;20361;-72
2021/04/27 04:20:49;;;;;;;1999.90;999.90;;;4.20;43.10;;;;;;5060389;28;20076;-72
2021/04/27 04:23:16;;;;;;;1999.90;999.90;;;4.10;42.70;;;;;;5042598;28;20049;-73
2021/04/27 04:25:42;;;;;;;1999.90;999.90;;;4.10;42.50;;;;;;5034010;28;20056;-72
2021/04/27 04:28:10;;;;;;;1999.90;999.90;;;4.00;42.80;;;;;;5035359;28;20152;-73
2021/04/27 04:30:36;;;;;;;1999.90;999.90;;;4.00;42.90;;;;;;5026412;28;20507;-73
2021/04/27 04:33:03;;;;;;;1999.90;999.90;;;4.00;42.90;;;;;;5042432;28;20051;-72
2021/04/27 04:35:31;;;;;;;1999.90;999.90;;;4.00;42.80;;;;;;5023672;28;20044;-73
2021/04/27 04:38:02;;;;;;;1999.90;999.90;;;4.00;43.00;;;;;;5047157;28;20103;-73
2021/04/27 04:40:28;;;;;;;1999.90;999.90;;;4.00;43.00;;;;;;5030799;28;20059;-72
2021/04/27 04:42:54;;;;;;;1999.90;999.90;;;4.00;43.10;;;;;;5040602;28;20072;-73
2021/04/27 04:45:21;;;;;;;1999.90;999.90;;;4.00;43.10;;;;;;5046604;28;20127;-73
2021/04/27 04:47:47;;;;;;;1999.90;999.90;;;4.00;43.50;;;;;;5031188;28;20393;-73
2021/04/27 04:50:15;;;;;;;1999.90;999.90;;;4.10;43.60;;;;;;5033035;28;20118;-73
2021/04/27 04:52:42;;;;;;;1999.90;999.90;;;4.10;43.70;;;;;;5044696;28;20140;-72
2021/04/27 04:55:09;;;;;;;1999.90;999.90;;;4.20;43.50;;;;;;5035467;28;20386;-73
2021/04/27 04:57:36;;;;;;;1999.90;999.90;;;4.30;43.60;;;;;;5030048;28;20060;-73
2021/04/27 05:00:07;;;;;;;1999.90;999.90;;;4.30;43.80;;;;;;5016201;28;20407;-73
2021/04/27 05:02:34;;;;;;;1999.90;999.90;;;4.40;43.80;;;;;;5020989;28;20183;-72
2021/04/27 05:05:00;;;;;;;1999.90;999.90;;;4.50;43.70;;;;;;5038262;28;20478;-73
2021/04/27 05:07:28;;;;;;;1999.90;999.90;;;4.50;44.10;;;;;;5040306;28;20122;-73
2021/04/27 05:09:54;;;;;;;1999.90;999.90;;;4.50;44.20;;;;;;5043728;28;20041;-73
2021/04/27 05:12:20;;;;;;;1999.90;999.90;;;4.60;44.20;;;;;;5025629;28;20495;-73
2021/04/27 05:14:46;;;;;;;1999.90;999.90;;;4.70;44.20;;;;;;5024448;28;20054;-73
2021/04/27 05:17:14;;;;;;;1999.90;999.90;;;4.80;44.40;;;;;;5033979;28;20046;-73
2021/04/27 05:19:41;;;;;;;1999.90;999.90;;;4.90;44.50;;;;;;5037834;28;20049;-72
2021/04/27 05:22:08;;;;;;;1999.90;999.90;;;5.00;44.50;;;;;;5034475;28;20308;-73
2021/04/27 05:24:37;;;;;;;1999.90;999.90;;;5.00;44.80;;;;;;5040466;28;20049;-73
2021/04/27 05:27:06;;;;;;;1999.90;999.90;;;5.10;44.50;;;;;;5043145;28;20379;-73
2021/04/27 05:29:33;;;;;;;1999.90;999.90;;;5.20;44.70;;;;;;5038683;28;20046;-73
2021/04/27 05:32:00;;;;;;;1999.90;999.90;;;5.30;44.80;;;;;;5046083;28;20049;-73
2021/04/27 05:34:27;;;;;;;1999.90;999.90;;;5.30;44.80;;;;;;5038375;28;20180;-73
2021/04/27 05:36:53;;;;;;;1999.90;999.90;;;5.50;45.00;;;;;;5032980;28;20112;-73
2021/04/27 05:39:20;;;;;;;1999.90;999.90;;;5.60;45.00;;;;;;5040936;28;20481;-73
2021/04/27 05:41:46;;;;;;;1999.90;999.90;;;5.70;45.30;;;;;;5044385;28;20127;-73
2021/04/27 05:44:12;;;;;;;1999.90;999.90;;;5.80;45.10;;;;;;5043891;28;20048;-73
2021/04/27 05:46:38;;;;;;;1999.90;999.90;;;5.90;45.10;;;;;;5034199;28;20080;-74
2021/04/27 05:49:05;;;;;;;1999.90;999.90;;;6.00;45.70;;;;;;5042263;28;20132;-73
2021/04/27 05:51:31;;;;;;;1999.90;999.90;;;6.10;45.50;;;;;;5031335;28;20129;-73
2021/04/27 05:53:57;;;;;;;1999.90;999.90;;;6.20;45.60;;;;;;5044102;28;20127;-73
2021/04/27 05:56:24;;;;;;;1999.90;999.90;;;6.30;45.80;;;;;;5029574;28;20391;-73
2021/04/27 05:58:50;;;;;;;1999.90;999.90;;;6.50;45.80;;;;;;5037326;28;20498;-73
2021/04/27 06:01:17;;;;;;;1999.90;999.90;;;6.70;46.20;;;;;;5042561;28;20087;-73
2021/04/27 06:03:44;;;;;;;1999.90;999.90;;;6.80;46.20;;;;;;5038002;28;20665;-73
2021/04/27 06:06:10;;;;;;;1999.90;999.90;;;7.00;46.70;;;;;;5025779;28;20140;-73
2021/04/27 06:08:37;;;;;;;1999.90;999.90;;;7.20;46.60;;;;;;5038998;28;20060;-73
2021/04/27 06:11:07;;;;;;;1999.90;999.90;;;7.30;46.80;;;;;;5044100;28;20551;-73
2021/04/27 06:13:34;;;;;;;1999.90;999.90;;;7.40;46.60;;;;;;5027005;28;20409;-73
2021/04/27 06:16:01;;;;;;;1999.90;999.90;;;7.50;46.60;;;;;;5038800;28;20045;-73
2021/04/27 06:18:28;;;;;;;1999.90;999.90;;;7.60;46.80;;;;;;5044839;28;20060;-73
2021/04/27 06:20:54;;;;;;;1999.90;999.90;;;7.70;47.40;;;;;;5042241;28;20056;-73
2021/04/27 06:23:21;;;;;;;1999.90;999.90;;;7.80;46.80;;;;;;5035277;28;20044;-73
2021/04/27 06:25:47;;;;;;;1999.90;999.90;;;7.80;46.80;;;;;;5027500;28;20051;-73
2021/04/27 06:28:14;;;;;;;1999.90;999.90;;;7.90;46.80;;;;;;5040718;28;20046;-73
2021/04/27 06:30:41;;;;;;;1999.90;999.90;;;8.00;46.80;;;;;;5046329;28;20040;-73
2021/04/27 06:33:08;;;;;;;1999.90;999.90;;;8.00;47.10;;;;;;5041641;28;20531;-73
2021/04/27 06:35:35;;;;;;;1999.90;999.90;;;8.10;47.00;;;;;;5051941;28;20392;-74
2021/04/27 06:38:02;;;;;;;1999.90;999.90;;;8.10;46.80;;;;;;5042383;28;20064;-72
2021/04/27 06:40:28;;;;;;;1999.90;999.90;;;8.10;46.80;;;;;;5044685;28;20060;-73
2021/04/27 06:42:55;;;;;;;1999.90;999.90;;;8.20;47.10;;;;;;5022256;28;20465;-73
2021/04/27 06:45:21;;;;;;;1999.90;999.90;;;8.20;47.00;;;;;;5041245;28;20050;-73
2021/04/27 06:47:48;;;;;;;1999.90;999.90;;;8.20;47.00;;;;;;5044662;28;20159;-73
2021/04/27 06:50:16;;;;;;;1999.90;999.90;;;8.30;47.20;;;;;;5040463;28;20485;-73
2021/04/27 06:52:44;;;;;;;1999.90;999.90;;;8.30;47.30;;;;;;5041147;28;20045;-73
2021/04/27 06:55:11;;;;;;;1999.90;999.90;;;8.30;47.20;;;;;;5038880;28;20052;-73
2021/04/27 06:57:38;;;;;;;1999.90;999.90;;;8.40;47.30;;;;;;5024375;28;20535;-73
2021/04/27 07:00:07;;;;;;;1999.90;999.90;;;8.50;47.20;;;;;;5046060;28;20105;-72
2021/04/27 07:02:33;;;;;;;1999.90;999.90;;;8.50;47.10;;;;;;5043987;28;20072;-73
2021/04/27 07:05:00;;;;;;;1999.90;999.90;;;8.50;47.60;;;;;;5042615;28;20048;-73
2021/04/27 07:07:27;;;;;;;1999.90;999.90;;;8.60;47.40;;;;;;5034736;28;20049;-73
2021/04/27 07:09:53;;;;;;;1999.90;999.90;;;8.70;47.60;;;;;;5042488;28;20481;-73
2021/04/27 07:12:21;;;;;;;1999.90;999.90;;;8.80;47.60;;;;;;5040768;28;20049;-72
2021/04/27 07:14:49;;;;;;;1999.90;999.90;;;8.90;47.70;;;;;;5038323;28;20053;-72
2021/04/27 07:17:16;;;;;;;1999.90;999.90;;;9.10;47.90;;;;;;5040616;28;20053;-72
2021/04/27 07:19:42;;;;;;;1000.50;500.40;;;9.20;47.90;;;;;;5027826;28;20545;-72
2021/04/27 07:22:09;;;;;;;;;;;9.20;51.80;;;;;;5041169;28;20448;-71
2021/04/27 07:24:35;;;;;;;1999.90;999.90;;;9.60;53.80;;;;;;5042091;28;20542;-73
2021/04/27 07:29:33;;;;;;;1999.90;999.90;;;9.90;50.20;;;;;;5086881;28;20425;-72
2021/04/27 07:32:03;;;;;;;1999.90;999.90;;;10.00;49.20;;;;;;5085823;28;20139;-72
2021/04/27 07:34:30;;;;;;;1999.90;999.90;;;10.00;48.80;;;;;;5084024;28;20476;-72
2021/04/27 07:36:56;;;;;;;1999.90;999.90;;;10.20;48.70;;;;;;5084081;28;20625;-72
2021/04/27 07:39:23;;;;;;;1999.90;999.90;;;10.20;48.40;;;;;;5084891;28;20068;-73
2021/04/27 07:41:49;;;;;;;1999.90;999.90;;;10.20;48.30;;;;;;5085660;28;20052;-72
2021/04/27 07:44:15;;;;;;;1999.90;999.90;;;10.30;48.50;;;;;;5086458;28;20128;-73
2021/04/27 07:46:42;;;;;;;1999.90;999.90;;;10.50;48.50;;;;;;5086397;28;20048;-73
2021/04/27 07:49:08;;;;;;;1999.90;999.90;;;10.60;48.70;;;;;;5084147;28;20045;-72
2021/04/27 07:51:35;;;;;;;1999.90;999.90;;;10.80;48.90;;;;;;5085368;28;20054;-72
2021/04/27 07:54:03;;;;;;;1999.90;999.90;;;11.00;48.60;;;;;;5086267;28;20053;-73
2021/04/27 07:56:30;;;;;;;1999.90;999.90;;;11.10;48.60;;;;;;5086184;28;20101;-72
2021/04/27 07:58:58;;;;;;;1999.90;999.90;;;11.40;48.90;;;;;;5085124;28;20055;-73
2021/04/27 08:01:27;;;;;;;1999.90;999.90;;;11.50;48.80;;;;;;5086206;28;20104;-72
2021/04/27 08:03:53;;;;;;;1999.90;999.90;;;11.70;48.70;;;;;;5086043;28;20052;-72
2021/04/27 08:06:20;;;;;;;1999.90;999.90;;;11.70;48.30;;;;;;5083984;28;20101;-73
2021/04/27 08:08:46;;;;;;;1999.90;999.90;;;11.90;48.40;;;;;;5086076;28;20079;-73
2021/04/27 08:11:13;;;;;;;1999.90;999.90;;;11.90;47.60;;;;;;5085964;28;20498;-72
2021/04/27 08:13:39;;;;;;;1999.90;999.90;;;12.00;47.80;;;;;;5085813;28;20411;-72
2021/04/27 08:16:06;;;;;;;1999.90;999.90;;;12.20;48.10;;;;;;5084202;28;20147;-73
2021/04/27 08:18:36;;;;;;;1999.90;999.90;;;12.30;47.80;;;;;;5085601;28;20106;-72
2021/04/27 08:21:05;;;;;;;1999.90;999.90;;;12.30;47.00;;;;;;5084716;28;20514;-72
2021/04/27 08:23:32;;;;;;;1999.90;999.90;;;12.40;47.60;;;;;;5085909;28;20734;-73
2021/04/27 08:25:59;;;;;;;1999.90;999.90;;;12.50;47.50;;;;;;5084946;28;20428;-72
2021/04/27 08:28:26;;;;;;;1999.90;999.90;;;12.70;47.00;;;;;;5084848;28;20048;-72
2021/04/27 08:30:52;;;;;;;1999.90;999.90;;;12.80;47.30;;;;;;5084169;28;20123;-73
2021/04/27 08:33:19;;;;;;;1999.90;999.90;;;12.80;46.80;;;;;;5085426;28;20725;-72
2021/04/27 08:35:46;;;;;;;1999.90;999.90;;;12.90;47.10;;;;;;5085584;28;20080;-72
2021/04/27 08:38:13;;;;;;;1999.90;999.90;;;13.00;47.00;;;;;;5083505;28;20144;-73
2021/04/27 08:40:40;;;;;;;1999.90;999.90;;;13.10;45.90;;;;;;5072354;28;20704;-72
2021/04/27 08:43:07;;;;;;;1999.90;999.90;;;13.10;45.80;;;;;;5071451;28;20357;-73
2021/04/27 08:45:38;;;;;;;1999.90;999.90;;;13.20;44.70;;;;;;5072208;28;20045;-73
2021/04/27 08:48:05;;;;;;;1999.90;999.90;;;13.10;45.40;;;;;;5071702;28;20052;-73
2021/04/27 08:50:31;;;;;;;1999.90;999.90;;;13.10;45.10;;;;;;5069813;28;20072;-73
2021/04/27 08:52:57;;;;;;;1999.90;999.90;;;13.20;45.70;;;;;;5070170;28;20051;-72
2021/04/27 08:55:24;;;;;;;1999.90;999.90;;;13.30;45.90;;;;;;5070514;28;20060;-73
2021/04/27 08:57:50;;;;;;;1999.90;999.90;;;13.50;46.00;;;;;;5071150;28;20087;-72
2021/04/27 09:00:19;;;;;;;1999.90;999.90;;;13.60;45.50;;;;;;5070982;28;20048;-73
2021/04/27 09:02:52;;;;;;;;;;;13.70;45.90;;;;;;5071563;28;20434;-72
2021/04/27 09:05:22;;;;;;;1999.90;999.90;;;13.70;45.10;;;;;;5071552;28;19920;-72
2021/04/27 09:07:50;;;;;;;1999.90;999.90;;;13.80;45.20;;;;;;5071054;28;20041;-73
2021/04/27 09:10:19;;;;;;;1999.90;999.90;;;13.80;45.20;;;;;;5069150;28;20040;-73
2021/04/27 09:12:53;;;;;;;1999.90;999.90;;;13.90;45.40;;;;;;5069675;28;20044;-73
2021/04/27 09:15:34;;;;;;;1999.90;999.90;;;14.10;45.30;;;;;;5067456;28;20084;-73
2021/04/27 09:18:21;;;;;;;1999.90;999.90;;;14.20;45.00;;;;;;5062451;28;20078;-72
2021/04/27 09:20:53;;;;;;;1999.90;999.90;;;14.30;45.20;;;;;;5056823;28;20120;-73
2021/04/27 09:23:19;;;;;;;1999.90;999.90;;;14.50;43.30;;;;;;5066198;28;20049;-73
2021/04/27 09:26:06;;;;;;;1999.90;999.90;;;14.50;43.70;;;;;;5073544;28;20044;-73
2021/04/27 09:28:37;;;;;;;1999.90;999.90;;;14.40;43.80;;;;;;5063996;28;20144;-73
2021/04/27 09:31:24;;;;;;;1999.90;999.90;;;14.50;44.40;;;;;;5062109;28;20052;-73
2021/04/27 09:33:53;;;;;;;1999.90;999.90;;;14.70;44.40;;;;;;5062728;28;20049;-73
2021/04/27 09:36:24;;;;;;;1999.90;999.90;;;14.80;43.90;;;;;;5070578;28;20507;-73
2021/04/27 09:38:54;;;;;;;1999.90;999.90;;;14.80;43.80;;;;;;5063693;28;20067;-73
2021/04/27 09:41:25;;;;;;;1999.90;999.90;;;14.80;44.10;;;;;;5085289;28;20045;-73
2021/04/27 09:43:53;;;;;;;1999.90;999.90;;;14.90;44.20;;;;;;5059471;28;20107;-73
2021/04/27 09:46:22;;;;;;;1999.90;999.90;;;14.90;43.70;;;;;;5064907;28;20141;-73
2021/04/27 09:48:55;;;;;;;1999.90;999.90;;;15.00;44.00;;;;;;5097330;28;20124;-73
2021/04/27 09:51:36;;;;;;;1999.90;999.90;;;15.00;41.70;;;;;;5068259;28;20097;-73
2021/04/27 09:54:10;;;;;;;1999.90;999.90;;;15.00;42.80;;;;;;5070986;28;20063;-74
2021/04/27 09:56:52;;;;;;;1999.90;999.90;;;15.00;42.90;;;;;;5071197;28;20567;-73
2021/04/27 09:59:30;;;;;;;1999.90;999.90;;;15.10;42.20;;;;;;5069034;28;20127;-73
2021/04/27 10:02:04;;;;;;;1999.90;999.90;;;15.10;41.90;;;;;;5069554;28;20071;-72
2021/04/27 10:04:30;;;;;;;1999.90;999.90;;;15.20;43.00;;;;;;5069387;28;20056;-73
2021/04/27 10:07:18;;;;;;;1999.90;999.90;;;15.30;41.10;;;;;;5070361;28;20475;-73
2021/04/27 10:09:48;;;;;;;1999.90;999.90;;;15.20;41.10;;;;;;5069654;28;20040;-73
2021/04/27 10:12:15;;;;;;;1999.90;999.90;;;15.20;41.10;;;;;;5069642;28;20348;-73
2021/04/27 10:14:41;;;;;;;1999.90;999.90;;;15.10;40.20;;;;;;5061640;28;20044;-72
2021/04/27 10:17:15;;;;;;;1999.90;999.90;;;15.30;41.80;;;;;;5064980;28;20441;-73
2021/04/27 10:19:42;;;;;;;1999.90;999.90;;;15.40;41.60;;;;;;5058321;28;20056;-73
2021/04/27 10:22:10;;;;;;;1999.90;999.90;;;15.50;40.80;;;;;;5066663;28;20045;-73
2021/04/27 10:24:38;;;;;;;1999.90;999.90;;;15.50;39.20;;;;;;5059864;28;20048;-73
2021/04/27 10:27:05;;;;;;;1999.90;999.90;;;15.60;39.40;;;;;;5078956;28;20049;-72
2021/04/27 10:29:31;;;;;;;1999.90;999.90;;;15.60;38.60;;;;;;5054031;28;20056;-72
2021/04/27 10:32:20;;;;;;;1999.90;999.90;;;15.60;39.40;;;;;;5052794;28;20036;-73
2021/04/27 10:34:58;;;;;;;1999.90;999.90;;;15.90;40.80;;;;;;5054469;28;20041;-73
2021/04/27 10:37:27;;;;;;;1999.90;999.90;;;16.20;42.00;;;;;;5058722;28;20048;-72
2021/04/27 10:39:54;;;;;;;1999.90;999.90;;;16.50;42.10;;;;;;5059481;28;20044;-73
2021/04/27 10:42:28;;;;;;;1999.90;999.90;;;16.60;41.50;;;;;;5056756;28;20045;-73
2021/04/27 10:45:03;;;;;;;1999.90;999.90;;;16.70;41.80;;;;;;5060406;28;20147;-73
2021/04/27 10:47:42;;;;;;;1999.90;999.90;;;16.80;42.40;;;;;;5056220;28;20055;-72
2021/04/27 10:50:24;;;;;;;1999.90;999.90;;;16.90;43.80;;;;;;5054166;28;20083;-73
2021/04/27 10:52:50;;;;;;;1999.90;999.90;;;17.10;42.70;;;;;;5057496;28;20159;-73
2021/04/27 10:55:28;;;;;;;1999.90;999.90;;;17.10;44.00;;;;;;5063092;28;20063;-74
2021/04/27 10:58:00;;;;;;;1999.90;999.90;;;17.10;44.10;;;;;;5063386;28;20080;-73
2021/04/27 11:00:47;;;;;;;1999.90;999.90;;;17.20;41.90;;;;;;5060478;28;20053;-73
2021/04/27 11:03:18;;;;;;;1999.90;999.90;;;17.40;44.00;;;;;;5059125;28;20053;-73
2021/04/27 11:06:30;;;;;;;1999.90;999.90;;;17.50;40.90;;;;;;5062284;28;20052;-73
2021/04/27 11:09:22;;;;;;;1999.90;999.90;;;17.50;43.00;;;;;;5055133;28;20068;-73
2021/04/27 11:11:54;;;;;;;1999.90;999.90;;;17.60;39.40;;;;;;5061429;28;20128;-73
2021/04/27 11:14:23;;;;;;;1999.90;999.90;;;17.50;40.10;;;;;;5063340;28;20075;-73
2021/04/27 11:16:54;;;;;;;1999.90;999.90;;;17.60;43.00;;;;;;5058451;28;20036;-73
2021/04/27 11:19:25;;;;;;;1999.90;999.90;;;17.40;37.20;;;;;;5056183;28;20048;-72
2021/04/27 11:21:54;;;;;;;1999.90;999.90;;;17.50;42.80;;;;;;5068069;28;20041;-73
2021/04/27 11:24:38;;;;;;;1999.90;999.90;;;17.60;41.80;;;;;;5053045;28;20040;-73
2021/04/27 11:27:19;;;;;;;1999.90;999.90;;;17.70;42.60;;;;;;5064753;28;20059;-73
2021/04/27 11:29:53;;;;;;;1999.90;999.90;;;17.80;42.50;;;;;;5059963;28;20041;-73
2021/04/27 11:32:20;;;;;;;1999.90;999.90;;;18.00;44.30;;;;;;5060560;28;20084;-73
2021/04/27 11:35:05;;;;;;;1999.90;999.90;;;18.20;44.60;;;;;;5065855;28;20401;-73
2021/04/27 11:37:33;;;;;;;1999.90;999.90;;;18.30;43.10;;;;;;5060981;28;20045;-72
2021/04/27 11:40:17;;;;;;;1999.90;999.90;;;18.40;40.90;;;;;;5059121;28;20124;-72
2021/04/27 11:42:45;;;;;;;1999.90;999.90;;;18.50;38.60;;;;;;5051745;28;20491;-73
2021/04/27 11:45:16;;;;;;;1999.90;999.90;;;18.70;38.50;;;;;;5062340;28;20492;-72
2021/04/27 11:47:49;;;;;;;1999.90;999.90;;;18.80;39.80;;;;;;5064628;28;20048;-72
2021/04/27 11:50:26;;;;;;;1999.90;999.90;;;18.90;41.20;;;;;;5063792;28;20487;-72
2021/04/27 11:52:52;;;;;;;1999.90;999.90;;;19.00;43.20;;;;;;5061747;28;20464;-72
2021/04/27 11:55:33;;;;;;;1999.90;999.90;;;19.00;42.20;;;;;;5051297;28;20047;-72
2021/04/27 11:58:14;;;;;;;1999.90;999.90;;;19.00;40.50;;;;;;5052833;28;20044;-72
2021/04/27 12:00:52;;;;;;;1999.90;999.90;;;19.00;42.90;;;;;;5060091;28;20086;-73
2021/04/27 12:03:34;;;;;;;1999.90;999.90;;;19.00;42.20;;;;;;5068081;28;20131;-72
2021/04/27 12:06:12;;;;;;;1999.90;999.90;;;18.90;41.80;;;;;;5089068;28;20109;-73
2021/04/27 12:08:40;;;;;;;;;;;18.80;39.50;;;;;;5064517;28;20456;-72
2021/04/27 12:11:09;;;;;;;1999.90;999.90;;;18.70;34.20;;;;;;5052723;28;19929;-73
2021/04/27 12:13:35;;;;;;;1999.90;999.90;;;18.90;39.40;;;;;;5066028;28;20080;-72
2021/04/27 12:16:23;;;;;;;1999.90;999.90;;;19.00;40.10;;;;;;5066677;28;20055;-72
2021/04/27 12:18:54;;;;;;;1999.90;999.90;;;19.20;40.60;;;;;;5061937;28;20040;-72